Mengxian, China
Current Conditions -  °F | °C
As of 6:00 AM on Saturday 01 Nov 2014 (Local Time) from ZHCC Reporting Station
Haze Haze  
Wind Chill: 57°   Ceiling: Unl
Heat Index: 57°   Visibility: 2.5mi
Dew Point: 48°   Wind: 4mph
Humidity: 72%   Direction: 270°W
Pressure: 30.12"   Gusts: NA
Location:  34.9°N, 112.78°E
Report Text: ZHCC 312200Z 27002MPS 4000 HZ NSC 14/09 Q1020 NOSIG
Loading
Personal Weather Stations






























Interactive Weather Map
Tropical Storm Tracking
New forecast layout! Learn more

10-Day Weather Forecast

Advertisements
Track Severe Weather on mobile